sensor_id;sensor_type;location;lat;lon;timestamp;P1;durP1;ratioP1;P2;durP2;ratioP2
12788;SDS011;6458;42.710;23.192;2023-05-16T00:00:34;27.07;;;21.97;;
12788;SDS011;6458;42.710;23.192;2023-05-16T00:03:03;30.60;;;21.53;;
12788;SDS011;6458;42.710;23.192;2023-05-16T00:05:30;27.40;;;21.93;;
12788;SDS011;6458;42.710;23.192;2023-05-16T00:07:56;28.67;;;22.10;;
12788;SDS011;6458;42.710;23.192;2023-05-16T00:10:23;31.00;;;24.30;;
12788;SDS011;6458;42.710;23.192;2023-05-16T00:12:50;27.37;;;21.47;;
12788;SDS011;6458;42.710;23.192;2023-05-16T00:15:17;32.27;;;23.67;;
12788;SDS011;6458;42.710;23.192;2023-05-16T00:17:44;27.80;;;21.63;;
12788;SDS011;6458;42.710;23.192;2023-05-16T00:20:13;29.97;;;22.90;;
12788;SDS011;6458;42.710;23.192;2023-05-16T00:22:41;31.13;;;22.23;;
12788;SDS011;6458;42.710;23.192;2023-05-16T00:25:08;25.80;;;21.40;;
12788;SDS011;6458;42.710;23.192;2023-05-16T00:27:35;32.87;;;22.27;;
12788;SDS011;6458;42.710;23.192;2023-05-16T00:30:05;28.37;;;20.97;;
12788;SDS011;6458;42.710;23.192;2023-05-16T00:32:31;29.60;;;21.77;;
12788;SDS011;6458;42.710;23.192;2023-05-16T00:34:58;26.60;;;22.00;;
12788;SDS011;6458;42.710;23.192;2023-05-16T00:37:26;28.90;;;21.93;;
12788;SDS011;6458;42.710;23.192;2023-05-16T00:39:53;27.13;;;21.50;;
12788;SDS011;6458;42.710;23.192;2023-05-16T00:42:20;29.57;;;21.00;;
12788;SDS011;6458;42.710;23.192;2023-05-16T00:44:47;27.83;;;21.00;;
12788;SDS011;6458;42.710;23.192;2023-05-16T00:47:13;29.13;;;20.90;;
12788;SDS011;6458;42.710;23.192;2023-05-16T00:49:40;28.23;;;20.27;;
12788;SDS011;6458;42.710;23.192;2023-05-16T00:52:07;29.60;;;21.80;;
12788;SDS011;6458;42.710;23.192;2023-05-16T00:54:36;27.83;;;22.87;;
12788;SDS011;6458;42.710;23.192;2023-05-16T00:57:03;34.37;;;23.87;;
12788;SDS011;6458;42.710;23.192;2023-05-16T00:59:30;33.10;;;23.63;;
12788;SDS011;6458;42.710;23.192;2023-05-16T01:01:56;28.97;;;22.27;;
12788;SDS011;6458;42.710;23.192;2023-05-16T01:04:23;27.80;;;22.40;;
12788;SDS011;6458;42.710;23.192;2023-05-16T01:06:50;28.47;;;21.80;;
12788;SDS011;6458;42.710;23.192;2023-05-16T01:09:16;28.80;;;21.70;;
12788;SDS011;6458;42.710;23.192;2023-05-16T01:11:48;28.97;;;22.80;;
12788;SDS011;6458;42.710;23.192;2023-05-16T01:14:18;36.10;;;24.90;;
12788;SDS011;6458;42.710;23.192;2023-05-16T01:16:48;32.03;;;23.43;;
12788;SDS011;6458;42.710;23.192;2023-05-16T01:19:20;35.53;;;25.00;;
12788;SDS011;6458;42.710;23.192;2023-05-16T01:21:57;33.27;;;24.53;;
12788;SDS011;6458;42.710;23.192;2023-05-16T01:24:29;31.87;;;24.13;;
12788;SDS011;6458;42.710;23.192;2023-05-16T01:27:00;33.53;;;24.53;;
12788;SDS011;6458;42.710;23.192;2023-05-16T01:29:29;32.97;;;24.07;;
12788;SDS011;6458;42.710;23.192;2023-05-16T01:31:56;30.37;;;24.37;;
12788;SDS011;6458;42.710;23.192;2023-05-16T01:34:23;30.87;;;24.03;;
12788;SDS011;6458;42.710;23.192;2023-05-16T01:36:51;29.03;;;22.37;;
12788;SDS011;6458;42.710;23.192;2023-05-16T01:39:24;32.07;;;24.23;;
12788;SDS011;6458;42.710;23.192;2023-05-16T01:41:54;33.17;;;22.63;;
12788;SDS011;6458;42.710;23.192;2023-05-16T01:44:25;29.87;;;22.03;;
12788;SDS011;6458;42.710;23.192;2023-05-16T01:46:56;28.97;;;21.43;;
12788;SDS011;6458;42.710;23.192;2023-05-16T01:49:24;27.20;;;22.07;;
12788;SDS011;6458;42.710;23.192;2023-05-16T01:51:53;26.87;;;21.60;;
12788;SDS011;6458;42.710;23.192;2023-05-16T01:54:21;28.07;;;21.70;;
12788;SDS011;6458;42.710;23.192;2023-05-16T01:56:50;29.20;;;22.33;;
12788;SDS011;6458;42.710;23.192;2023-05-16T01:59:18;32.77;;;22.67;;
12788;SDS011;6458;42.710;23.192;2023-05-16T02:01:47;26.67;;;22.00;;
12788;SDS011;6458;42.710;23.192;2023-05-16T02:04:13;26.43;;;21.43;;
12788;SDS011;6458;42.710;23.192;2023-05-16T02:06:41;29.20;;;23.03;;
12788;SDS011;6458;42.710;23.192;2023-05-16T02:09:08;30.67;;;22.37;;
12788;SDS011;6458;42.710;23.192;2023-05-16T02:11:34;28.03;;;22.03;;
12788;SDS011;6458;42.710;23.192;2023-05-16T02:14:01;29.80;;;22.33;;
12788;SDS011;6458;42.710;23.192;2023-05-16T02:16:28;29.37;;;22.87;;
12788;SDS011;6458;42.710;23.192;2023-05-16T02:18:56;29.97;;;23.20;;
12788;SDS011;6458;42.710;23.192;2023-05-16T02:21:23;32.07;;;23.33;;
12788;SDS011;6458;42.710;23.192;2023-05-16T02:23:49;29.27;;;23.27;;
12788;SDS011;6458;42.710;23.192;2023-05-16T02:26:16;28.93;;;23.47;;
12788;SDS011;6458;42.710;23.192;2023-05-16T02:28:43;29.97;;;21.70;;
12788;SDS011;6458;42.710;23.192;2023-05-16T02:31:09;26.77;;;21.40;;
12788;SDS011;6458;42.710;23.192;2023-05-16T02:33:36;27.13;;;22.60;;
12788;SDS011;6458;42.710;23.192;2023-05-16T02:36:05;29.23;;;23.17;;
12788;SDS011;6458;42.710;23.192;2023-05-16T02:38:32;27.47;;;21.90;;
12788;SDS011;6458;42.710;23.192;2023-05-16T02:40:58;31.50;;;24.67;;
12788;SDS011;6458;42.710;23.192;2023-05-16T02:43:25;28.20;;;23.57;;
12788;SDS011;6458;42.710;23.192;2023-05-16T02:45:52;28.43;;;22.47;;
12788;SDS011;6458;42.710;23.192;2023-05-16T02:48:18;27.67;;;21.97;;
12788;SDS011;6458;42.710;23.192;2023-05-16T02:50:45;26.73;;;21.53;;
12788;SDS011;6458;42.710;23.192;2023-05-16T02:53:13;27.90;;;22.80;;
12788;SDS011;6458;42.710;23.192;2023-05-16T02:55:40;27.83;;;21.97;;
12788;SDS011;6458;42.710;23.192;2023-05-16T02:58:07;26.40;;;22.30;;
12788;SDS011;6458;42.710;23.192;2023-05-16T03:00:33;24.53;;;21.27;;
12788;SDS011;6458;42.710;23.192;2023-05-16T03:03:00;27.07;;;21.60;;
12788;SDS011;6458;42.710;23.192;2023-05-16T03:05:26;26.57;;;21.70;;
12788;SDS011;6458;42.710;23.192;2023-05-16T03:07:53;27.53;;;22.30;;
12788;SDS011;6458;42.710;23.192;2023-05-16T03:10:21;25.07;;;22.13;;
12788;SDS011;6458;42.710;23.192;2023-05-16T03:12:48;26.10;;;21.63;;
12788;SDS011;6458;42.710;23.192;2023-05-16T03:15:15;27.27;;;22.93;;
12788;SDS011;6458;42.710;23.192;2023-05-16T03:17:42;31.00;;;23.20;;
12788;SDS011;6458;42.710;23.192;2023-05-16T03:20:09;29.27;;;21.07;;
12788;SDS011;6458;42.710;23.192;2023-05-16T03:22:36;31.13;;;23.43;;
12788;SDS011;6458;42.710;23.192;2023-05-16T03:25:04;29.77;;;23.53;;
12788;SDS011;6458;42.710;23.192;2023-05-16T03:27:33;28.67;;;24.00;;
12788;SDS011;6458;42.710;23.192;2023-05-16T03:30:00;30.60;;;24.57;;
12788;SDS011;6458;42.710;23.192;2023-05-16T03:32:27;30.57;;;23.10;;
12788;SDS011;6458;42.710;23.192;2023-05-16T03:34:53;28.50;;;22.23;;
12788;SDS011;6458;42.710;23.192;2023-05-16T03:37:20;27.27;;;22.60;;
12788;SDS011;6458;42.710;23.192;2023-05-16T03:39:47;29.83;;;22.97;;
12788;SDS011;6458;42.710;23.192;2023-05-16T03:42:13;25.17;;;22.30;;
12788;SDS011;6458;42.710;23.192;2023-05-16T03:44:42;26.23;;;22.00;;
12788;SDS011;6458;42.710;23.192;2023-05-16T03:47:09;27.67;;;22.73;;
12788;SDS011;6458;42.710;23.192;2023-05-16T03:49:36;26.30;;;22.57;;
12788;SDS011;6458;42.710;23.192;2023-05-16T03:52:03;28.87;;;22.43;;
12788;SDS011;6458;42.710;23.192;2023-05-16T03:54:29;25.60;;;22.43;;
12788;SDS011;6458;42.710;23.192;2023-05-16T03:56:56;29.17;;;22.63;;
12788;SDS011;6458;42.710;23.192;2023-05-16T03:59:23;24.53;;;21.93;;
12788;SDS011;6458;42.710;23.192;2023-05-16T04:01:51;31.40;;;23.47;;
12788;SDS011;6458;42.710;23.192;2023-05-16T04:04:17;31.03;;;23.87;;
12788;SDS011;6458;42.710;23.192;2023-05-16T04:06:44;28.87;;;23.50;;
12788;SDS011;6458;42.710;23.192;2023-05-16T04:09:11;30.53;;;23.23;;
12788;SDS011;6458;42.710;23.192;2023-05-16T04:11:38;26.23;;;23.30;;
12788;SDS011;6458;42.710;23.192;2023-05-16T04:14:04;27.90;;;21.83;;
12788;SDS011;6458;42.710;23.192;2023-05-16T04:16:31;29.23;;;23.13;;
12788;SDS011;6458;42.710;23.192;2023-05-16T04:18:59;46.70;;;30.70;;
12788;SDS011;6458;42.710;23.192;2023-05-16T04:21:26;44.80;;;29.37;;
12788;SDS011;6458;42.710;23.192;2023-05-16T04:23:52;31.77;;;24.23;;
12788;SDS011;6458;42.710;23.192;2023-05-16T04:26:19;31.93;;;24.07;;
12788;SDS011;6458;42.710;23.192;2023-05-16T04:28:46;33.93;;;25.60;;
12788;SDS011;6458;42.710;23.192;2023-05-16T04:31:13;50.03;;;31.13;;
12788;SDS011;6458;42.710;23.192;2023-05-16T04:33:40;48.53;;;31.53;;
12788;SDS011;6458;42.710;23.192;2023-05-16T04:36:08;33.70;;;24.17;;
12788;SDS011;6458;42.710;23.192;2023-05-16T04:38:35;36.83;;;25.90;;
12788;SDS011;6458;42.710;23.192;2023-05-16T04:41:02;40.23;;;27.07;;
12788;SDS011;6458;42.710;23.192;2023-05-16T04:43:29;41.27;;;28.47;;
12788;SDS011;6458;42.710;23.192;2023-05-16T04:45:56;36.30;;;26.60;;
12788;SDS011;6458;42.710;23.192;2023-05-16T04:48:23;29.93;;;23.30;;
12788;SDS011;6458;42.710;23.192;2023-05-16T04:50:50;30.10;;;23.27;;
12788;SDS011;6458;42.710;23.192;2023-05-16T04:53:18;35.33;;;27.80;;
12788;SDS011;6458;42.710;23.192;2023-05-16T04:55:44;32.13;;;25.77;;
12788;SDS011;6458;42.710;23.192;2023-05-16T04:58:11;29.77;;;23.13;;
12788;SDS011;6458;42.710;23.192;2023-05-16T05:00:38;24.73;;;21.83;;
12788;SDS011;6458;42.710;23.192;2023-05-16T05:03:04;26.70;;;20.80;;
12788;SDS011;6458;42.710;23.192;2023-05-16T05:05:31;24.67;;;20.57;;
12788;SDS011;6458;42.710;23.192;2023-05-16T05:07:58;25.27;;;20.37;;
12788;SDS011;6458;42.710;23.192;2023-05-16T05:10:27;25.20;;;20.03;;
12788;SDS011;6458;42.710;23.192;2023-05-16T05:12:55;22.77;;;20.17;;
12788;SDS011;6458;42.710;23.192;2023-05-16T05:15:22;22.47;;;20.07;;
12788;SDS011;6458;42.710;23.192;2023-05-16T05:17:48;22.70;;;20.20;;
12788;SDS011;6458;42.710;23.192;2023-05-16T05:20:15;24.23;;;20.80;;
12788;SDS011;6458;42.710;23.192;2023-05-16T05:22:42;24.17;;;21.10;;
12788;SDS011;6458;42.710;23.192;2023-05-16T05:25:09;28.37;;;21.93;;
12788;SDS011;6458;42.710;23.192;2023-05-16T05:27:37;25.20;;;21.73;;
12788;SDS011;6458;42.710;23.192;2023-05-16T05:30:04;26.60;;;21.57;;
12788;SDS011;6458;42.710;23.192;2023-05-16T05:32:33;24.17;;;21.57;;
12788;SDS011;6458;42.710;23.192;2023-05-16T05:35:03;23.63;;;21.17;;
12788;SDS011;6458;42.710;23.192;2023-05-16T05:37:30;26.60;;;21.00;;
12788;SDS011;6458;42.710;23.192;2023-05-16T05:39:57;26.67;;;20.03;;
12788;SDS011;6458;42.710;23.192;2023-05-16T05:42:23;21.37;;;19.10;;
12788;SDS011;6458;42.710;23.192;2023-05-16T05:44:51;22.93;;;20.27;;
12788;SDS011;6458;42.710;23.192;2023-05-16T05:47:19;23.00;;;20.37;;
12788;SDS011;6458;42.710;23.192;2023-05-16T05:49:45;28.20;;;19.83;;
12788;SDS011;6458;42.710;23.192;2023-05-16T05:52:12;20.73;;;18.13;;
12788;SDS011;6458;42.710;23.192;2023-05-16T05:54:39;20.73;;;18.33;;
12788;SDS011;6458;42.710;23.192;2023-05-16T05:57:05;21.47;;;19.33;;
12788;SDS011;6458;42.710;23.192;2023-05-16T05:59:32;22.17;;;18.93;;
12788;SDS011;6458;42.710;23.192;2023-05-16T06:02:00;20.80;;;18.60;;
12788;SDS011;6458;42.710;23.192;2023-05-16T06:04:27;20.63;;;18.43;;
12788;SDS011;6458;42.710;23.192;2023-05-16T06:06:53;23.80;;;18.07;;
12788;SDS011;6458;42.710;23.192;2023-05-16T06:09:20;21.07;;;18.87;;
12788;SDS011;6458;42.710;23.192;2023-05-16T06:11:50;21.73;;;19.40;;
12788;SDS011;6458;42.710;23.192;2023-05-16T06:14:16;21.57;;;19.10;;
12788;SDS011;6458;42.710;23.192;2023-05-16T06:16:43;20.87;;;18.73;;
12788;SDS011;6458;42.710;23.192;2023-05-16T06:19:11;21.33;;;19.13;;
12788;SDS011;6458;42.710;23.192;2023-05-16T06:21:40;23.13;;;19.57;;
12788;SDS011;6458;42.710;23.192;2023-05-16T06:24:06;20.60;;;18.50;;
12788;SDS011;6458;42.710;23.192;2023-05-16T06:26:33;22.57;;;18.53;;
12788;SDS011;6458;42.710;23.192;2023-05-16T06:29:00;22.47;;;18.23;;
12788;SDS011;6458;42.710;23.192;2023-05-16T06:31:26;20.37;;;18.07;;
12788;SDS011;6458;42.710;23.192;2023-05-16T06:33:53;19.63;;;17.33;;
12788;SDS011;6458;42.710;23.192;2023-05-16T06:36:21;21.07;;;17.37;;
12788;SDS011;6458;42.710;23.192;2023-05-16T06:38:48;21.13;;;18.00;;
12788;SDS011;6458;42.710;23.192;2023-05-16T06:41:17;18.30;;;16.50;;
12788;SDS011;6458;42.710;23.192;2023-05-16T06:43:45;19.00;;;16.97;;
12788;SDS011;6458;42.710;23.192;2023-05-16T06:46:12;20.90;;;18.17;;
12788;SDS011;6458;42.710;23.192;2023-05-16T06:48:38;19.77;;;17.67;;
12788;SDS011;6458;42.710;23.192;2023-05-16T06:51:05;20.97;;;17.57;;
12788;SDS011;6458;42.710;23.192;2023-05-16T06:53:33;17.53;;;15.73;;
12788;SDS011;6458;42.710;23.192;2023-05-16T06:56:00;19.83;;;17.00;;
12788;SDS011;6458;42.710;23.192;2023-05-16T06:58:27;18.57;;;16.40;;
12788;SDS011;6458;42.710;23.192;2023-05-16T07:00:54;20.13;;;16.97;;
12788;SDS011;6458;42.710;23.192;2023-05-16T07:03:20;19.93;;;17.93;;
12788;SDS011;6458;42.710;23.192;2023-05-16T07:05:47;21.03;;;18.23;;
12788;SDS011;6458;42.710;23.192;2023-05-16T07:08:17;21.47;;;18.93;;
12788;SDS011;6458;42.710;23.192;2023-05-16T07:10:45;23.67;;;18.50;;
12788;SDS011;6458;42.710;23.192;2023-05-16T07:13:11;22.23;;;19.20;;
12788;SDS011;6458;42.710;23.192;2023-05-16T07:15:38;20.30;;;18.20;;
12788;SDS011;6458;42.710;23.192;2023-05-16T07:18:05;19.43;;;16.63;;
12788;SDS011;6458;42.710;23.192;2023-05-16T07:20:31;20.50;;;18.40;;
12788;SDS011;6458;42.710;23.192;2023-05-16T07:22:58;18.63;;;16.73;;
12788;SDS011;6458;42.710;23.192;2023-05-16T07:25:25;18.33;;;16.43;;
12788;SDS011;6458;42.710;23.192;2023-05-16T07:27:53;18.07;;;16.27;;
12788;SDS011;6458;42.710;23.192;2023-05-16T07:30:20;18.13;;;16.10;;
12788;SDS011;6458;42.710;23.192;2023-05-16T07:32:46;20.97;;;15.97;;
12788;SDS011;6458;42.710;23.192;2023-05-16T07:35:13;19.20;;;15.97;;
12788;SDS011;6458;42.710;23.192;2023-05-16T07:37:41;17.73;;;15.93;;
12788;SDS011;6458;42.710;23.192;2023-05-16T07:40:08;19.47;;;16.10;;
12788;SDS011;6458;42.710;23.192;2023-05-16T07:42:34;18.87;;;16.67;;
12788;SDS011;6458;42.710;23.192;2023-05-16T07:45:03;18.50;;;15.23;;
12788;SDS011;6458;42.710;23.192;2023-05-16T07:47:31;20.67;;;16.10;;
12788;SDS011;6458;42.710;23.192;2023-05-16T07:49:57;17.87;;;15.63;;
12788;SDS011;6458;42.710;23.192;2023-05-16T07:52:24;16.80;;;14.43;;
12788;SDS011;6458;42.710;23.192;2023-05-16T07:54:51;18.20;;;14.60;;
12788;SDS011;6458;42.710;23.192;2023-05-16T07:57:18;16.10;;;13.77;;
12788;SDS011;6458;42.710;23.192;2023-05-16T07:59:45;13.13;;;10.70;;
12788;SDS011;6458;42.710;23.192;2023-05-16T08:02:13;12.47;;;10.80;;
12788;SDS011;6458;42.710;23.192;2023-05-16T08:04:40;13.20;;;10.80;;
12788;SDS011;6458;42.710;23.192;2023-05-16T08:07:07;18.00;;;13.13;;
12788;SDS011;6458;42.710;23.192;2023-05-16T08:09:34;10.87;;;9.73;;
12788;SDS011;6458;42.710;23.192;2023-05-16T08:12:00;10.93;;;9.70;;
12788;SDS011;6458;42.710;23.192;2023-05-16T08:14:28;15.10;;;10.47;;
12788;SDS011;6458;42.710;23.192;2023-05-16T08:16:55;10.40;;;9.40;;
12788;SDS011;6458;42.710;23.192;2023-05-16T08:19:23;10.67;;;9.67;;
12788;SDS011;6458;42.710;23.192;2023-05-16T08:21:50;15.87;;;10.13;;
12788;SDS011;6458;42.710;23.192;2023-05-16T08:24:16;10.50;;;9.40;;
12788;SDS011;6458;42.710;23.192;2023-05-16T08:26:43;10.73;;;9.63;;
12788;SDS011;6458;42.710;23.192;2023-05-16T08:29:10;10.50;;;9.57;;
12788;SDS011;6458;42.710;23.192;2023-05-16T08:31:37;13.33;;;9.40;;
12788;SDS011;6458;42.710;23.192;2023-05-16T08:34:03;10.70;;;9.80;;
12788;SDS011;6458;42.710;23.192;2023-05-16T08:36:32;10.50;;;9.50;;
12788;SDS011;6458;42.710;23.192;2023-05-16T08:39:00;10.47;;;9.27;;
12788;SDS011;6458;42.710;23.192;2023-05-16T08:41:27;9.83;;;8.87;;
12788;SDS011;6458;42.710;23.192;2023-05-16T08:43:54;9.70;;;8.80;;
12788;SDS011;6458;42.710;23.192;2023-05-16T08:46:21;9.93;;;8.97;;
12788;SDS011;6458;42.710;23.192;2023-05-16T08:48:49;10.57;;;9.27;;
12788;SDS011;6458;42.710;23.192;2023-05-16T08:51:17;12.60;;;9.30;;
12788;SDS011;6458;42.710;23.192;2023-05-16T08:53:51;9.67;;;8.77;;
12788;SDS011;6458;42.710;23.192;2023-05-16T08:56:18;9.80;;;8.80;;
12788;SDS011;6458;42.710;23.192;2023-05-16T08:58:46;10.17;;;8.77;;
12788;SDS011;6458;42.710;23.192;2023-05-16T09:01:13;10.53;;;8.73;;
12788;SDS011;6458;42.710;23.192;2023-05-16T09:03:40;9.37;;;8.33;;
12788;SDS011;6458;42.710;23.192;2023-05-16T09:06:07;11.17;;;8.80;;
12788;SDS011;6458;42.710;23.192;2023-05-16T09:08:34;8.57;;;7.70;;
12788;SDS011;6458;42.710;23.192;2023-05-16T09:11:02;9.27;;;8.37;;
12788;SDS011;6458;42.710;23.192;2023-05-16T09:13:29;8.40;;;7.60;;
12788;SDS011;6458;42.710;23.192;2023-05-16T09:16:08;9.30;;;8.47;;
12788;SDS011;6458;42.710;23.192;2023-05-16T09:18:35;12.13;;;8.17;;
12788;SDS011;6458;42.710;23.192;2023-05-16T09:21:01;12.77;;;8.43;;
12788;SDS011;6458;42.710;23.192;2023-05-16T09:23:28;8.47;;;7.67;;
12788;SDS011;6458;42.710;23.192;2023-05-16T09:25:56;10.93;;;7.93;;
12788;SDS011;6458;42.710;23.192;2023-05-16T09:28:25;12.20;;;8.60;;
12788;SDS011;6458;42.710;23.192;2023-05-16T09:30:52;7.70;;;6.97;;
12788;SDS011;6458;42.710;23.192;2023-05-16T09:33:21;10.80;;;7.97;;
12788;SDS011;6458;42.710;23.192;2023-05-16T09:35:53;8.63;;;7.70;;
12788;SDS011;6458;42.710;23.192;2023-05-16T09:38:20;8.10;;;7.40;;
12788;SDS011;6458;42.710;23.192;2023-05-16T09:40:46;9.10;;;8.20;;
12788;SDS011;6458;42.710;23.192;2023-05-16T09:43:13;9.63;;;7.50;;
12788;SDS011;6458;42.710;23.192;2023-05-16T09:45:44;9.27;;;7.60;;
12788;SDS011;6458;42.710;23.192;2023-05-16T09:48:10;12.30;;;8.03;;
12788;SDS011;6458;42.710;23.192;2023-05-16T09:50:37;9.70;;;7.63;;
12788;SDS011;6458;42.710;23.192;2023-05-16T09:53:04;12.33;;;7.20;;
12788;SDS011;6458;42.710;23.192;2023-05-16T09:55:31;9.30;;;8.37;;
12788;SDS011;6458;42.710;23.192;2023-05-16T09:57:58;10.63;;;8.23;;
12788;SDS011;6458;42.710;23.192;2023-05-16T10:00:27;8.60;;;7.50;;
12788;SDS011;6458;42.710;23.192;2023-05-16T10:02:56;13.37;;;9.30;;
12788;SDS011;6458;42.710;23.192;2023-05-16T10:05:23;8.77;;;7.90;;
12788;SDS011;6458;42.710;23.192;2023-05-16T10:07:51;10.40;;;8.37;;
12788;SDS011;6458;42.710;23.192;2023-05-16T10:10:20;11.07;;;8.27;;
12788;SDS011;6458;42.710;23.192;2023-05-16T10:12:47;9.53;;;8.27;;
12788;SDS011;6458;42.710;23.192;2023-05-16T10:15:14;9.93;;;8.30;;
12788;SDS011;6458;42.710;23.192;2023-05-16T10:17:41;9.53;;;8.30;;
12788;SDS011;6458;42.710;23.192;2023-05-16T10:20:11;9.20;;;7.73;;
12788;SDS011;6458;42.710;23.192;2023-05-16T10:22:39;9.43;;;7.97;;
12788;SDS011;6458;42.710;23.192;2023-05-16T10:25:09;9.00;;;8.20;;
12788;SDS011;6458;42.710;23.192;2023-05-16T10:27:36;12.07;;;8.93;;
12788;SDS011;6458;42.710;23.192;2023-05-16T10:30:04;10.77;;;9.33;;
12788;SDS011;6458;42.710;23.192;2023-05-16T10:32:31;9.50;;;8.57;;
12788;SDS011;6458;42.710;23.192;2023-05-16T10:34:58;11.20;;;10.10;;
12788;SDS011;6458;42.710;23.192;2023-05-16T10:37:28;12.97;;;9.37;;
12788;SDS011;6458;42.710;23.192;2023-05-16T10:39:56;9.83;;;8.93;;
12788;SDS011;6458;42.710;23.192;2023-05-16T10:42:23;10.23;;;9.20;;
12788;SDS011;6458;42.710;23.192;2023-05-16T10:44:52;12.97;;;9.90;;
12788;SDS011;6458;42.710;23.192;2023-05-16T10:47:19;14.00;;;9.53;;
12788;SDS011;6458;42.710;23.192;2023-05-16T10:49:45;11.13;;;8.83;;
12788;SDS011;6458;42.710;23.192;2023-05-16T10:52:12;9.67;;;8.87;;
12788;SDS011;6458;42.710;23.192;2023-05-16T10:54:43;13.20;;;9.73;;
12788;SDS011;6458;42.710;23.192;2023-05-16T10:57:15;10.53;;;8.70;;
12788;SDS011;6458;42.710;23.192;2023-05-16T10:59:44;9.60;;;8.60;;
12788;SDS011;6458;42.710;23.192;2023-05-16T11:02:21;15.10;;;9.63;;
12788;SDS011;6458;42.710;23.192;2023-05-16T11:04:48;11.03;;;9.73;;
12788;SDS011;6458;42.710;23.192;2023-05-16T11:07:16;14.87;;;9.37;;
12788;SDS011;6458;42.710;23.192;2023-05-16T11:09:44;11.43;;;8.17;;
12788;SDS011;6458;42.710;23.192;2023-05-16T11:12:11;10.20;;;9.30;;
12788;SDS011;6458;42.710;23.192;2023-05-16T11:14:38;9.70;;;8.87;;
12788;SDS011;6458;42.710;23.192;2023-05-16T11:17:07;10.87;;;9.77;;
12788;SDS011;6458;42.710;23.192;2023-05-16T11:19:34;10.33;;;9.30;;
12788;SDS011;6458;42.710;23.192;2023-05-16T11:22:08;9.93;;;9.03;;
12788;SDS011;6458;42.710;23.192;2023-05-16T11:24:36;11.27;;;8.80;;
12788;SDS011;6458;42.710;23.192;2023-05-16T11:27:05;13.03;;;9.70;;
12788;SDS011;6458;42.710;23.192;2023-05-16T11:29:32;11.27;;;9.17;;
12788;SDS011;6458;42.710;23.192;2023-05-16T11:31:59;15.20;;;9.90;;
12788;SDS011;6458;42.710;23.192;2023-05-16T11:34:26;12.03;;;10.20;;
12788;SDS011;6458;42.710;23.192;2023-05-16T11:36:52;12.27;;;10.33;;
12788;SDS011;6458;42.710;23.192;2023-05-16T11:39:20;15.33;;;10.50;;
12788;SDS011;6458;42.710;23.192;2023-05-16T11:41:48;11.43;;;9.20;;
12788;SDS011;6458;42.710;23.192;2023-05-16T11:44:17;11.53;;;9.93;;
12788;SDS011;6458;42.710;23.192;2023-05-16T11:46:43;11.10;;;10.00;;
12788;SDS011;6458;42.710;23.192;2023-05-16T11:49:10;11.83;;;10.63;;
12788;SDS011;6458;42.710;23.192;2023-05-16T11:51:37;11.57;;;9.90;;
12788;SDS011;6458;42.710;23.192;2023-05-16T11:54:04;13.40;;;9.97;;
12788;SDS011;6458;42.710;23.192;2023-05-16T11:56:31;11.60;;;10.27;;
12788;SDS011;6458;42.710;23.192;2023-05-16T11:58:59;13.27;;;10.10;;
12788;SDS011;6458;42.710;23.192;2023-05-16T12:01:32;11.70;;;10.43;;
12788;SDS011;6458;42.710;23.192;2023-05-16T12:03:58;12.30;;;11.10;;
12788;SDS011;6458;42.710;23.192;2023-05-16T12:06:25;11.97;;;10.67;;
12788;SDS011;6458;42.710;23.192;2023-05-16T12:08:57;11.70;;;10.53;;
12788;SDS011;6458;42.710;23.192;2023-05-16T12:11:26;10.97;;;9.90;;
12788;SDS011;6458;42.710;23.192;2023-05-16T12:13:53;12.57;;;10.27;;
12788;SDS011;6458;42.710;23.192;2023-05-16T12:16:20;13.23;;;10.57;;
12788;SDS011;6458;42.710;23.192;2023-05-16T12:18:48;11.33;;;10.13;;
12788;SDS011;6458;42.710;23.192;2023-05-16T12:21:15;15.20;;;10.23;;
12788;SDS011;6458;42.710;23.192;2023-05-16T12:23:42;13.40;;;10.13;;
12788;SDS011;6458;42.710;23.192;2023-05-16T12:26:09;11.70;;;10.50;;
12788;SDS011;6458;42.710;23.192;2023-05-16T12:28:35;13.93;;;11.23;;
12788;SDS011;6458;42.710;23.192;2023-05-16T12:31:03;15.57;;;11.13;;
12788;SDS011;6458;42.710;23.192;2023-05-16T12:33:36;12.63;;;11.47;;
12788;SDS011;6458;42.710;23.192;2023-05-16T12:36:05;14.70;;;13.13;;
12788;SDS011;6458;42.710;23.192;2023-05-16T12:38:38;13.63;;;11.30;;
12788;SDS011;6458;42.710;23.192;2023-05-16T12:41:05;13.43;;;10.17;;
12788;SDS011;6458;42.710;23.192;2023-05-16T12:43:31;11.80;;;10.67;;
12788;SDS011;6458;42.710;23.192;2023-05-16T12:45:58;16.40;;;11.17;;
12788;SDS011;6458;42.710;23.192;2023-05-16T12:48:28;14.40;;;11.00;;
12788;SDS011;6458;42.710;23.192;2023-05-16T12:50:57;14.90;;;11.33;;
12788;SDS011;6458;42.710;23.192;2023-05-16T12:53:40;12.00;;;10.20;;
12788;SDS011;6458;42.710;23.192;2023-05-16T12:56:06;13.63;;;11.03;;
12788;SDS011;6458;42.710;23.192;2023-05-16T12:58:33;11.83;;;10.73;;
12788;SDS011;6458;42.710;23.192;2023-05-16T13:01:00;13.93;;;10.80;;
12788;SDS011;6458;42.710;23.192;2023-05-16T13:03:27;12.33;;;11.10;;
12788;SDS011;6458;42.710;23.192;2023-05-16T13:05:54;11.87;;;10.40;;
12788;SDS011;6458;42.710;23.192;2023-05-16T13:08:21;11.97;;;9.57;;
12788;SDS011;6458;42.710;23.192;2023-05-16T13:10:49;10.97;;;9.93;;
12788;SDS011;6458;42.710;23.192;2023-05-16T13:13:15;17.13;;;10.67;;
12788;SDS011;6458;42.710;23.192;2023-05-16T13:15:43;13.13;;;11.63;;
12788;SDS011;6458;42.710;23.192;2023-05-16T13:18:09;11.93;;;10.83;;
12788;SDS011;6458;42.710;23.192;2023-05-16T13:20:36;12.00;;;10.73;;
12788;SDS011;6458;42.710;23.192;2023-05-16T13:23:03;11.80;;;10.57;;
12788;SDS011;6458;42.710;23.192;2023-05-16T13:25:30;14.47;;;11.27;;
12788;SDS011;6458;42.710;23.192;2023-05-16T13:27:58;12.87;;;10.87;;
12788;SDS011;6458;42.710;23.192;2023-05-16T13:30:25;13.90;;;11.10;;
12788;SDS011;6458;42.710;23.192;2023-05-16T13:32:53;14.00;;;10.77;;
12788;SDS011;6458;42.710;23.192;2023-05-16T13:35:19;16.70;;;11.63;;
12788;SDS011;6458;42.710;23.192;2023-05-16T13:37:46;12.73;;;10.40;;
12788;SDS011;6458;42.710;23.192;2023-05-16T13:40:12;15.40;;;12.60;;
12788;SDS011;6458;42.710;23.192;2023-05-16T13:42:39;15.93;;;14.07;;
12788;SDS011;6458;42.710;23.192;2023-05-16T13:45:07;15.80;;;12.90;;
12788;SDS011;6458;42.710;23.192;2023-05-16T13:47:34;14.93;;;13.43;;
12788;SDS011;6458;42.710;23.192;2023-05-16T13:50:01;18.20;;;12.63;;
12788;SDS011;6458;42.710;23.192;2023-05-16T13:52:31;17.53;;;12.57;;
12788;SDS011;6458;42.710;23.192;2023-05-16T13:54:58;17.00;;;13.20;;
12788;SDS011;6458;42.710;23.192;2023-05-16T13:57:25;15.33;;;13.73;;
12788;SDS011;6458;42.710;23.192;2023-05-16T13:59:52;16.10;;;12.93;;
12788;SDS011;6458;42.710;23.192;2023-05-16T14:02:20;19.70;;;13.17;;
12788;SDS011;6458;42.710;23.192;2023-05-16T14:04:50;16.60;;;12.77;;
12788;SDS011;6458;42.710;23.192;2023-05-16T14:07:16;14.43;;;13.03;;
12788;SDS011;6458;42.710;23.192;2023-05-16T14:09:43;15.23;;;13.40;;
12788;SDS011;6458;42.710;23.192;2023-05-16T14:12:10;22.80;;;14.83;;
12788;SDS011;6458;42.710;23.192;2023-05-16T14:14:36;18.63;;;15.20;;
12788;SDS011;6458;42.710;23.192;2023-05-16T14:17:04;18.83;;;14.40;;
12788;SDS011;6458;42.710;23.192;2023-05-16T14:19:32;20.47;;;16.73;;
12788;SDS011;6458;42.710;23.192;2023-05-16T14:22:00;14.83;;;13.40;;
12788;SDS011;6458;42.710;23.192;2023-05-16T14:24:26;14.13;;;12.77;;
12788;SDS011;6458;42.710;23.192;2023-05-16T14:26:53;12.90;;;11.40;;